Time;durP1;ratioP1;P1;durP2;ratioP2;P2;SDS_P1;SDS_P2;PMS_P1;PMS_P2;Temp;Humidity;BMP_temperature;BMP_pressure;BME280_temperature;BME280_humidity;BME280_pressure;Samples;Min_cycle;Max_cycle;Signal;HPM_P1;HPM_P2
2023/05/10 00:00:24;;;;;;;3.00;2.40;;;13.00;53.10;;;;;;4928778;29;20036;-64
2023/05/10 00:02:49;;;;;;;2.65;2.33;;;13.00;53.00;;;;;;4932014;29;20115;-63
2023/05/10 00:05:15;;;;;;;3.80;2.30;;;13.00;53.10;;;;;;4930699;29;20047;-53
2023/05/10 00:07:44;;;;;;;2.85;2.47;;;13.10;53.00;;;;;;4924052;29;20066;-50
2023/05/10 00:10:10;;;;;;;2.28;2.08;;;13.10;53.00;;;;;;4928856;29;20024;-61
2023/05/10 00:12:36;;;;;;;4.05;2.38;;;13.00;52.70;;;;;;4931216;29;20031;-63
2023/05/10 00:15:02;;;;;;;2.45;2.20;;;13.10;52.80;;;;;;4939025;29;20043;-64
2023/05/10 00:17:28;;;;;;;2.50;2.30;;;13.00;52.90;;;;;;4932941;29;20071;-55
2023/05/10 00:19:54;;;;;;;2.88;2.67;;;13.00;52.80;;;;;;4931022;29;20043;-54
2023/05/10 00:22:20;;;;;;;2.83;2.40;;;13.10;52.80;;;;;;4921703;29;20111;-60
2023/05/10 00:24:46;;;;;;;2.08;1.98;;;13.00;52.60;;;;;;4931660;29;20436;-61
2023/05/10 00:27:11;;;;;;;3.40;2.35;;;13.00;52.50;;;;;;4927958;29;20063;-59
2023/05/10 00:29:37;;;;;;;2.80;2.30;;;13.00;52.60;;;;;;4932399;29;20119;-60
2023/05/10 00:32:03;;;;;;;3.22;2.55;;;13.00;52.60;;;;;;4916452;29;20440;-60
2023/05/10 00:34:28;;;;;;;2.95;2.20;;;13.00;52.50;;;;;;4923560;29;20060;-60
2023/05/10 00:36:54;;;;;;;2.50;2.30;;;13.00;52.30;;;;;;4917832;29;20083;-60
2023/05/10 00:39:20;;;;;;;2.42;2.25;;;13.00;52.10;;;;;;4921276;29;20130;-61
2023/05/10 00:41:45;;;;;;;2.22;2.00;;;13.00;52.40;;;;;;4928508;29;20032;-64
2023/05/10 00:44:11;;;;;;;2.55;2.33;;;13.00;52.50;;;;;;4930218;29;20039;-65
2023/05/10 00:46:37;;;;;;;2.35;2.15;;;13.00;52.60;;;;;;4929920;29;20071;-60
2023/05/10 00:49:03;;;;;;;2.88;2.30;;;13.00;52.40;;;;;;4922814;29;20039;-60
2023/05/10 00:51:28;;;;;;;2.50;2.30;;;13.00;52.20;;;;;;4932861;29;20036;-63
2023/05/10 00:53:55;;;;;;;2.78;2.47;;;13.00;52.40;;;;;;4930642;29;20114;-64
2023/05/10 00:56:22;;;;;;;2.97;2.33;;;13.00;52.60;;;;;;4925759;29;20063;-55
2023/05/10 00:58:49;;;;;;;4.00;2.40;;;13.00;52.90;;;;;;4921632;29;20024;-57
2023/05/10 01:01:14;;;;;;;2.35;2.15;;;13.00;52.70;;;;;;4930176;29;20032;-61
2023/05/10 01:03:40;;;;;;;2.75;2.10;;;13.00;52.60;;;;;;4925192;29;20059;-60
2023/05/10 01:06:06;;;;;;;3.42;2.60;;;13.00;52.60;;;;;;4929395;29;20034;-65
2023/05/10 01:08:32;;;;;;;2.45;2.25;;;13.00;52.40;;;;;;4939622;29;20555;-61
2023/05/10 01:10:58;;;;;;;2.60;2.40;;;13.00;52.60;;;;;;4937568;29;20032;-61
2023/05/10 01:13:35;;;;;;;3.03;2.20;;;13.00;53.50;;;;;;4926155;29;20091;-61
2023/05/10 01:16:03;;;;;;;2.80;2.50;;;13.00;52.50;;;;;;4934737;29;20074;-64
2023/05/10 01:18:30;;;;;;;2.65;2.45;;;13.00;52.50;;;;;;4929673;29;20032;-66
2023/05/10 01:21:17;;;;;;;2.60;2.40;;;13.00;52.60;;;;;;4933093;29;20538;-61
2023/05/10 01:24:09;;;;;;;2.22;2.03;;;13.00;52.80;;;;;;4933999;29;20047;-60
2023/05/10 01:26:52;;;;;;;2.60;2.40;;;13.10;52.80;;;;;;4935476;29;20042;-58
2023/05/10 01:29:40;;;;;;;3.03;2.47;;;13.10;52.70;;;;;;4925118;29;20039;-58
2023/05/10 01:32:14;;;;;;;2.30;2.10;;;13.10;52.70;;;;;;4924780;29;20039;-59
2023/05/10 01:34:51;;;;;;;2.72;2.33;;;13.10;52.90;;;;;;4927465;29;20051;-61
2023/05/10 01:37:25;;;;;;;3.30;2.40;;;13.10;52.70;;;;;;4923004;29;20602;-52
2023/05/10 01:40:00;;;;;;;4.22;2.80;;;13.10;52.70;;;;;;4927603;29;20024;-51
2023/05/10 01:42:35;;;;;;;2.83;2.17;;;13.10;52.70;;;;;;4921453;29;20032;-57
2023/05/10 01:45:04;;;;;;;2.40;2.10;;;13.10;52.70;;;;;;4932385;29;20035;-59
2023/05/10 01:47:38;;;;;;;2.30;2.10;;;13.10;52.50;;;;;;4922141;29;20043;-58
2023/05/10 01:50:10;;;;;;;2.78;2.50;;;13.20;52.70;;;;;;4922730;29;20110;-58
2023/05/10 01:52:43;;;;;;;2.63;2.40;;;13.20;53.10;;;;;;4919584;29;20035;-57
2023/05/10 01:55:14;;;;;;;2.28;2.08;;;13.20;52.70;;;;;;4939153;29;20519;-58
2023/05/10 01:57:43;;;;;;;2.90;2.63;;;13.20;52.50;;;;;;4929900;29;20102;-58
2023/05/10 02:00:10;;;;;;;2.40;2.20;;;13.20;52.20;;;;;;4924984;29;20048;-58
2023/05/10 02:02:42;;;;;;;2.88;2.38;;;13.20;52.30;;;;;;4927809;29;20158;-59
2023/05/10 02:05:09;;;;;;;2.45;2.25;;;13.20;52.30;;;;;;4924761;29;20044;-58
2023/05/10 02:07:36;;;;;;;2.25;2.05;;;13.20;52.20;;;;;;4924183;29;20066;-57
2023/05/10 02:10:07;;;;;;;3.10;2.53;;;13.20;52.40;;;;;;4929476;29;20035;-58
2023/05/10 02:12:40;;;;;;;2.45;2.17;;;13.20;52.40;;;;;;4921507;29;20039;-57
2023/05/10 02:15:08;;;;;;;2.55;2.10;;;13.20;52.30;;;;;;4931480;29;20036;-58
2023/05/10 02:17:36;;;;;;;2.67;2.47;;;13.20;52.30;;;;;;4932573;29;20087;-59
2023/05/10 02:20:05;;;;;;;2.30;2.10;;;13.20;52.70;;;;;;4933039;29;20414;-57
2023/05/10 02:22:31;;;;;;;3.60;2.45;;;13.20;52.70;;;;;;4932598;29;20478;-57
2023/05/10 02:25:00;;;;;;;3.42;2.38;;;13.10;52.60;;;;;;4928107;29;20526;-60
2023/05/10 02:27:27;;;;;;;2.78;2.50;;;13.10;52.60;;;;;;4934112;29;20410;-59
2023/05/10 02:29:54;;;;;;;3.03;2.45;;;13.10;52.90;;;;;;4935069;29;20546;-60
2023/05/10 02:32:22;;;;;;;3.50;2.55;;;13.10;53.00;;;;;;4921076;29;20469;-61
2023/05/10 02:34:51;;;;;;;2.90;2.60;;;13.10;52.70;;;;;;4930309;29;20035;-61
2023/05/10 02:37:19;;;;;;;3.35;3.05;;;13.10;53.00;;;;;;4931028;29;20118;-60
2023/05/10 02:39:47;;;;;;;2.75;2.50;;;13.10;52.90;;;;;;4920800;29;20103;-60
2023/05/10 02:42:25;;;;;;;2.90;2.60;;;13.10;53.20;;;;;;4925204;29;20021;-57
2023/05/10 02:44:54;;;;;;;3.83;2.78;;;13.00;53.60;;;;;;4925062;29;20063;-57
2023/05/10 02:47:20;;;;;;;3.22;2.90;;;13.00;53.80;;;;;;4925207;29;20028;-60
2023/05/10 02:49:46;;;;;;;3.90;2.78;;;13.00;53.60;;;;;;4929289;29;20488;-58
2023/05/10 02:52:19;;;;;;;3.92;2.85;;;12.90;53.30;;;;;;4934059;29;20122;-64
2023/05/10 02:54:49;;;;;;;4.35;2.95;;;12.80;53.20;;;;;;4930922;29;20173;-66
2023/05/10 02:57:19;;;;;;;4.22;3.20;;;12.70;53.30;;;;;;4927379;29;20103;-64
2023/05/10 02:59:45;;;;;;;2.80;2.55;;;12.70;53.50;;;;;;4935411;29;20371;-64
2023/05/10 03:02:14;;;;;;;4.00;3.13;;;12.60;53.70;;;;;;4929214;29;20047;-60
2023/05/10 03:04:40;;;;;;;5.32;3.50;;;12.60;53.90;;;;;;4928690;29;20072;-61
2023/05/10 03:07:06;;;;;;;4.22;3.45;;;12.50;53.90;;;;;;4932186;29;20055;-64
2023/05/10 03:09:32;;;;;;;3.83;2.92;;;12.50;53.80;;;;;;4940411;29;20035;-65
2023/05/10 03:12:28;;;;;;;4.22;3.45;;;12.50;54.00;;;;;;4929714;29;20043;-60
2023/05/10 03:15:05;;;;;;;4.63;3.35;;;12.50;54.40;;;;;;4931496;29;20063;-60
2023/05/10 03:18:18;;;;;;;4.38;3.30;;;12.50;54.20;;;;;;4920866;29;20020;-60
2023/05/10 03:20:50;;;;;;;7.93;3.90;;;12.50;54.20;;;;;;4871618;29;20131;-65
2023/05/10 03:23:28;;;;;;;4.65;3.15;;;12.50;54.00;;;;;;4929720;29;20731;-62
2023/05/10 03:25:54;;;;;;;4.65;3.22;;;12.40;53.90;;;;;;4934810;29;20059;-64
2023/05/10 03:28:21;;;;;;;7.50;3.45;;;12.40;53.80;;;;;;4927032;29;20043;-65
2023/05/10 03:30:48;;;;;;;4.35;3.60;;;12.30;54.00;;;;;;4931079;29;20059;-58
2023/05/10 03:33:14;;;;;;;4.18;3.50;;;12.30;54.00;;;;;;4926727;29;20055;-53
2023/05/10 03:35:39;;;;;;;6.75;4.00;;;12.30;54.40;;;;;;4928179;29;20024;-60
2023/05/10 03:38:05;;;;;;;4.95;3.83;;;12.30;54.30;;;;;;4921067;29;20032;-61
2023/05/10 03:40:31;;;;;;;4.85;3.83;;;12.20;54.70;;;;;;4924107;29;20036;-62
2023/05/10 03:42:59;;;;;;;6.93;3.67;;;12.30;54.80;;;;;;4926477;29;20043;-64
2023/05/10 03:45:24;;;;;;;5.68;3.80;;;12.30;54.90;;;;;;4930433;29;20035;-61
2023/05/10 03:47:51;;;;;;;4.80;3.60;;;12.30;55.10;;;;;;4930923;29;20106;-61
2023/05/10 03:50:16;;;;;;;5.28;3.60;;;12.40;55.40;;;;;;4929318;29;20067;-60
2023/05/10 03:52:43;;;;;;;4.32;3.45;;;12.60;55.60;;;;;;4932270;29;20094;-60
2023/05/10 03:55:09;;;;;;;4.20;3.20;;;12.80;55.50;;;;;;4919201;29;20470;-60
2023/05/10 03:57:35;;;;;;;4.43;3.47;;;12.90;55.30;;;;;;4922671;29;20029;-60
2023/05/10 04:00:01;;;;;;;6.00;3.80;;;13.10;55.00;;;;;;4931862;29;20386;-60
2023/05/10 04:02:26;;;;;;;5.65;3.50;;;13.20;54.60;;;;;;4921795;29;20032;-60
2023/05/10 04:04:52;;;;;;;6.30;3.88;;;13.20;54.30;;;;;;4918712;29;20636;-59
2023/05/10 04:07:18;;;;;;;5.43;3.60;;;13.30;54.00;;;;;;4924255;29;20032;-60
2023/05/10 04:09:43;;;;;;;5.20;3.55;;;13.30;53.90;;;;;;4934477;29;20027;-65
2023/05/10 04:12:09;;;;;;;5.40;3.55;;;13.40;53.90;;;;;;4923787;29;20435;-61
2023/05/10 04:14:35;;;;;;;5.85;3.60;;;13.50;53.80;;;;;;4921064;29;20031;-61
2023/05/10 04:17:00;;;;;;;4.03;3.38;;;13.70;53.70;;;;;;4931800;29;20094;-60
2023/05/10 04:19:32;;;;;;;4.80;3.40;;;14.30;54.00;;;;;;4926698;29;20115;-61
2023/05/10 04:21:58;;;;;;;5.97;3.53;;;15.10;53.40;;;;;;4922479;29;20040;-61
2023/05/10 04:24:24;;;;;;;5.80;3.50;;;15.70;52.50;;;;;;4932482;29;20050;-63
2023/05/10 04:26:50;;;;;;;3.83;3.05;;;16.30;51.80;;;;;;4928611;29;20114;-57
2023/05/10 04:29:16;;;;;;;5.35;3.33;;;16.70;51.50;;;;;;4921333;29;20083;-58
2023/05/10 04:31:42;;;;;;;5.13;3.47;;;17.40;51.20;;;;;;4928960;29;20060;-59
2023/05/10 04:34:07;;;;;;;5.05;3.05;;;18.30;50.70;;;;;;4924339;29;20042;-57
2023/05/10 04:36:35;;;;;;;4.63;3.08;;;19.20;49.80;;;;;;4928315;29;20027;-58
2023/05/10 04:39:02;;;;;;;3.83;3.15;;;20.00;48.80;;;;;;4931372;29;20053;-58
2023/05/10 04:41:28;;;;;;;4.28;3.20;;;20.70;48.00;;;;;;4923231;29;20024;-57
2023/05/10 04:43:54;;;;;;;4.90;2.80;;;21.40;47.50;;;;;;4936374;29;20062;-58
2023/05/10 04:46:19;;;;;;;5.68;3.58;;;22.10;46.60;;;;;;4934390;29;20389;-56
2023/05/10 04:48:45;;;;;;;4.97;3.28;;;22.60;45.60;;;;;;4934838;29;20035;-59
2023/05/10 04:51:11;;;;;;;4.60;3.45;;;22.90;44.90;;;;;;4933714;29;20032;-62
2023/05/10 04:53:37;;;;;;;4.90;3.10;;;23.10;44.10;;;;;;4938029;29;20036;-60
2023/05/10 04:56:02;;;;;;;4.22;3.15;;;23.10;43.60;;;;;;4931376;29;20056;-63
2023/05/10 04:58:28;;;;;;;4.45;3.05;;;23.20;43.30;;;;;;4933245;29;20098;-63
2023/05/10 05:00:54;;;;;;;5.22;3.40;;;23.30;43.30;;;;;;4933082;29;20046;-60
2023/05/10 05:03:19;;;;;;;5.93;3.90;;;23.40;43.20;;;;;;4934286;29;20023;-61
2023/05/10 05:05:45;;;;;;;12.55;3.30;;;23.60;42.70;;;;;;4931163;29;20031;-61
2023/05/10 05:08:10;;;;;;;3.97;3.10;;;23.60;42.00;;;;;;4932320;29;20494;-61
2023/05/10 05:10:36;;;;;;;6.05;3.60;;;23.40;41.60;;;;;;4924716;29;20043;-64
2023/05/10 05:13:02;;;;;;;5.80;3.85;;;23.00;41.70;;;;;;4942872;29;20039;-64
2023/05/10 05:15:27;;;;;;;4.75;3.20;;;22.70;42.10;;;;;;4932379;29;20039;-63
2023/05/10 05:17:53;;;;;;;4.90;3.40;;;22.60;42.20;;;;;;4935206;29;20118;-62
2023/05/10 05:20:19;;;;;;;5.03;3.70;;;22.50;42.00;;;;;;4941358;29;20039;-57
2023/05/10 05:22:44;;;;;;;5.50;3.88;;;22.40;41.80;;;;;;4928178;29;20031;-57
2023/05/10 05:25:11;;;;;;;5.18;3.30;;;22.40;41.60;;;;;;4925438;29;20047;-57
2023/05/10 05:27:37;;;;;;;4.35;3.38;;;22.30;41.40;;;;;;4924492;29;20023;-57
2023/05/10 05:30:04;;;;;;;5.10;3.53;;;22.10;41.40;;;;;;4926847;29;20034;-59
2023/05/10 05:32:30;;;;;;;4.22;3.15;;;21.70;41.70;;;;;;4929838;29;20044;-58
2023/05/10 05:34:56;;;;;;;5.07;3.20;;;21.30;41.90;;;;;;4918539;29;20043;-58
2023/05/10 05:37:22;;;;;;;4.75;3.20;;;20.70;42.30;;;;;;4927478;29;20119;-59
2023/05/10 05:39:48;;;;;;;5.28;3.75;;;20.20;42.80;;;;;;4932231;29;20105;-59
2023/05/10 05:42:16;;;;;;;4.93;3.22;;;19.80;43.30;;;;;;4927487;29;20032;-60
2023/05/10 05:44:41;;;;;;;4.35;3.40;;;19.40;43.70;;;;;;4931502;29;20082;-61
2023/05/10 05:47:07;;;;;;;3.92;3.30;;;19.10;44.10;;;;;;4928431;29;20430;-54
2023/05/10 05:49:33;;;;;;;4.50;3.15;;;18.80;44.30;;;;;;4925820;29;20050;-56
2023/05/10 05:52:00;;;;;;;4.13;3.28;;;18.50;44.50;;;;;;4930911;29;20063;-58
2023/05/10 05:54:26;;;;;;;4.15;3.33;;;18.30;44.60;;;;;;4927941;29;20158;-56
2023/05/10 05:56:55;;;;;;;4.05;3.10;;;18.10;44.80;;;;;;4921125;29;20052;-57
2023/05/10 05:59:21;;;;;;;3.13;2.83;;;17.90;45.10;;;;;;4921506;29;20043;-52
2023/05/10 06:01:46;;;;;;;3.85;3.25;;;17.70;45.40;;;;;;4923371;29;20046;-52
2023/05/10 06:04:12;;;;;;;3.30;2.80;;;17.60;45.40;;;;;;4922904;29;20036;-49
2023/05/10 06:06:38;;;;;;;3.25;2.78;;;17.60;45.40;;;;;;4926736;29;20082;-52
2023/05/10 06:09:03;;;;;;;3.90;3.08;;;17.60;45.60;;;;;;4923681;29;20035;-51
2023/05/10 06:11:31;;;;;;;4.78;3.38;;;17.50;45.40;;;;;;4930062;29;20252;-52
2023/05/10 06:13:58;;;;;;;3.75;2.83;;;17.50;45.50;;;;;;4920828;29;20032;-49
2023/05/10 06:16:23;;;;;;;3.55;3.22;;;17.40;45.80;;;;;;4922556;29;20039;-52
2023/05/10 06:18:49;;;;;;;5.50;3.10;;;17.40;46.00;;;;;;4922972;29;20036;-53
2023/05/10 06:21:16;;;;;;;3.95;2.97;;;17.40;46.70;;;;;;4924214;29;20032;-49
2023/05/10 06:23:41;;;;;;;4.80;3.28;;;17.30;46.80;;;;;;4925963;29;20072;-51
2023/05/10 06:26:07;;;;;;;5.40;3.15;;;17.30;46.90;;;;;;4922400;29;20066;-52
2023/05/10 06:28:33;;;;;;;4.97;3.72;;;17.30;46.90;;;;;;4923363;29;21800;-56
2023/05/10 06:30:59;;;;;;;4.35;2.90;;;17.20;46.90;;;;;;4921338;29;20027;-57
2023/05/10 06:33:25;;;;;;;4.07;3.20;;;17.10;47.00;;;;;;4923799;29;20031;-55
2023/05/10 06:35:51;;;;;;;3.67;3.25;;;17.10;47.10;;;;;;4923545;29;20024;-57
2023/05/10 06:38:17;;;;;;;3.72;2.90;;;17.00;47.10;;;;;;4931432;29;20413;-53
2023/05/10 06:40:43;;;;;;;4.43;3.38;;;17.00;47.10;;;;;;4929900;29;20035;-55
2023/05/10 06:43:09;;;;;;;4.53;2.97;;;17.00;47.30;;;;;;4928714;29;20064;-55
2023/05/10 06:45:34;;;;;;;3.78;2.72;;;16.90;47.20;;;;;;4922391;29;20042;-52
2023/05/10 06:48:00;;;;;;;3.97;2.95;;;16.90;47.40;;;;;;4924174;29;20891;-56
2023/05/10 06:50:26;;;;;;;4.57;3.00;;;16.90;47.70;;;;;;4921805;29;20028;-56
2023/05/10 06:52:52;;;;;;;3.72;2.90;;;16.90;47.80;;;;;;4918930;29;20040;-57
2023/05/10 06:55:18;;;;;;;5.10;3.30;;;16.90;48.10;;;;;;4918111;29;20044;-53
2023/05/10 06:57:43;;;;;;;5.57;3.25;;;16.90;48.40;;;;;;4913269;29;20032;-56
2023/05/10 07:00:10;;;;;;;4.20;2.90;;;16.90;48.70;;;;;;4919250;29;20038;-49
2023/05/10 07:02:35;;;;;;;3.72;2.70;;;16.80;48.50;;;;;;4917778;29;20032;-53
2023/05/10 07:05:01;;;;;;;3.67;2.97;;;16.80;48.30;;;;;;4918991;29;20047;-54
2023/05/10 07:07:27;;;;;;;3.35;3.00;;;16.80;48.60;;;;;;4915706;29;20031;-57
2023/05/10 07:09:53;;;;;;;3.85;3.05;;;16.80;48.80;;;;;;4919675;29;20078;-53
2023/05/10 07:12:19;;;;;;;5.18;3.17;;;16.80;49.20;;;;;;4919722;29;20047;-56
2023/05/10 07:14:45;;;;;;;4.32;3.17;;;16.80;49.40;;;;;;4918933;29;20040;-59
2023/05/10 07:17:11;;;;;;;3.85;3.03;;;16.80;49.50;;;;;;4925488;29;20118;-54
2023/05/10 07:19:36;;;;;;;4.85;3.47;;;16.90;49.50;;;;;;4910308;29;20040;-55
2023/05/10 07:22:02;;;;;;;6.25;3.20;;;16.90;49.50;;;;;;4914555;29;20154;-56
2023/05/10 07:24:28;;;;;;;4.35;3.35;;;16.90;49.60;;;;;;4909018;29;20043;-59
2023/05/10 07:26:54;;;;;;;3.40;2.80;;;16.90;49.60;;;;;;4914049;29;20028;-57
2023/05/10 07:29:20;;;;;;;4.95;2.72;;;16.90;49.10;;;;;;4915428;29;20831;-59
2023/05/10 07:31:45;;;;;;;2.70;2.50;;;17.00;48.40;;;;;;4908849;29;20032;-57
2023/05/10 07:34:11;;;;;;;3.40;2.83;;;17.10;48.20;;;;;;4915519;29;20047;-54
2023/05/10 07:36:37;;;;;;;3.22;2.58;;;17.10;47.80;;;;;;4909265;28;20032;-52
2023/05/10 07:39:02;;;;;;;2.83;2.30;;;17.20;47.90;;;;;;4912291;29;20082;-53
2023/05/10 07:41:28;;;;;;;2.97;2.55;;;17.20;47.50;;;;;;4909319;29;20078;-54
2023/05/10 07:43:54;;;;;;;4.70;2.67;;;17.20;47.30;;;;;;4908885;29;20403;-53
2023/05/10 07:46:20;;;;;;;4.72;2.92;;;17.20;47.20;;;;;;4914753;29;20035;-58
2023/05/10 07:48:46;;;;;;;3.08;2.65;;;17.30;47.20;;;;;;4908900;29;20378;-52
2023/05/10 07:51:11;;;;;;;3.13;2.55;;;17.30;46.90;;;;;;4910752;29;21622;-58
2023/05/10 07:53:37;;;;;;;2.30;2.10;;;17.40;46.70;;;;;;4917369;29;20027;-55
2023/05/10 07:56:21;;;;;;;2.25;2.05;;;17.40;46.30;;;;;;4906281;29;20059;-59
2023/05/10 07:58:47;;;;;;;2.90;2.42;;;17.40;45.80;;;;;;4900992;29;20058;-55
2023/05/10 08:01:13;;;;;;;3.28;2.63;;;17.40;45.70;;;;;;4906220;29;20755;-50
2023/05/10 08:03:38;;;;;;;4.82;2.85;;;17.40;45.90;;;;;;4910226;29;20466;-54
2023/05/10 08:06:04;;;;;;;3.67;2.40;;;17.50;45.90;;;;;;4915389;29;20043;-60
2023/05/10 08:08:30;;;;;;;3.28;2.40;;;17.50;45.70;;;;;;4906650;29;20039;-53
2023/05/10 08:10:55;;;;;;;3.42;2.30;;;17.60;45.20;;;;;;4907311;29;20157;-55
2023/05/10 08:13:21;;;;;;;2.95;2.30;;;17.60;44.90;;;;;;4911077;29;20031;-51
2023/05/10 08:15:47;;;;;;;2.97;2.55;;;17.70;44.60;;;;;;4914136;29;20116;-52
2023/05/10 08:18:13;;;;;;;2.00;1.90;;;17.70;44.40;;;;;;4907490;29;20122;-55
2023/05/10 08:20:38;;;;;;;2.90;2.30;;;17.70;44.30;;;;;;4909713;29;20526;-53
2023/05/10 08:23:04;;;;;;;2.50;2.20;;;17.80;44.10;;;;;;4903601;29;20096;-55
2023/05/10 08:25:31;;;;;;;2.83;2.40;;;17.80;43.90;;;;;;4904877;29;20051;-53
2023/05/10 08:27:57;;;;;;;3.10;2.42;;;17.80;43.80;;;;;;4908672;29;20047;-56
2023/05/10 08:30:22;;;;;;;2.67;1.90;;;17.80;43.60;;;;;;4911591;29;20035;-53
2023/05/10 08:32:48;;;;;;;2.65;2.00;;;17.80;43.70;;;;;;4902356;29;20067;-58
2023/05/10 08:35:13;;;;;;;3.78;2.30;;;17.80;43.50;;;;;;4900765;29;20126;-52
2023/05/10 08:37:39;;;;;;;5.35;2.70;;;17.80;43.50;;;;;;4909763;29;20051;-55
2023/05/10 08:40:05;;;;;;;2.63;2.42;;;17.80;43.50;;;;;;4907766;29;20375;-50
2023/05/10 08:42:34;;;;;;;2.47;2.17;;;17.80;43.50;;;;;;4912601;29;20088;-58
2023/05/10 08:45:01;;;;;;;3.83;2.40;;;17.80;43.30;;;;;;4911946;29;20059;-55
2023/05/10 08:47:28;;;;;;;3.25;2.20;;;17.90;43.40;;;;;;4908755;29;20066;-50
2023/05/10 08:49:55;;;;;;;3.22;2.13;;;17.90;43.20;;;;;;4902987;29;20123;-54
2023/05/10 08:52:23;;;;;;;2.67;2.10;;;17.90;43.40;;;;;;4912153;29;20039;-56
2023/05/10 08:54:49;;;;;;;3.85;1.95;;;17.90;43.30;;;;;;4910764;29;20040;-58
2023/05/10 08:57:14;;;;;;;2.95;2.15;;;17.90;43.30;;;;;;4906984;29;20058;-56
2023/05/10 08:59:40;;;;;;;2.17;2.08;;;17.80;43.40;;;;;;4906653;29;20039;-55
2023/05/10 09:02:09;;;;;;;4.63;2.33;;;17.80;43.30;;;;;;4901472;29;20078;-57
2023/05/10 09:04:35;;;;;;;2.10;1.92;;;17.80;43.20;;;;;;4894910;29;20048;-57
2023/05/10 09:07:01;;;;;;;2.40;2.20;;;17.70;43.20;;;;;;4897034;29;20150;-61
2023/05/10 09:09:27;;;;;;;2.42;2.20;;;17.70;43.00;;;;;;4894890;29;20043;-56
2023/05/10 09:11:54;;;;;;;3.75;2.20;;;17.70;43.20;;;;;;4908286;29;20139;-58
2023/05/10 09:14:20;;;;;;;2.22;2.00;;;17.60;42.90;;;;;;4905229;29;20043;-54
2023/05/10 09:16:46;;;;;;;2.20;2.00;;;17.60;42.70;;;;;;4898390;29;20043;-56
2023/05/10 09:19:12;;;;;;;2.58;1.95;;;17.60;42.60;;;;;;4901741;29;20123;-52
2023/05/10 09:21:38;;;;;;;3.45;2.60;;;17.70;42.50;;;;;;4901953;29;20039;-52
2023/05/10 09:24:08;;;;;;;3.28;2.60;;;17.70;42.40;;;;;;4907432;29;20036;-58
2023/05/10 09:26:35;;;;;;;2.33;2.08;;;17.80;42.50;;;;;;4907732;29;20071;-60
2023/05/10 09:29:02;;;;;;;2.17;1.92;;;17.90;42.20;;;;;;4906200;29;20031;-55
2023/05/10 09:31:46;;;;;;;1.75;1.65;;;17.90;42.10;;;;;;4905743;29;20046;-51
2023/05/10 09:34:17;;;;;;;3.92;2.13;;;17.90;41.90;;;;;;4888269;29;20039;-59
2023/05/10 09:36:56;;;;;;;;;;;17.90;41.70;;;;;;4904517;29;21197;-54
2023/05/10 09:39:36;;;;;;;2.65;2.00;;;17.90;41.80;;;;;;4904891;29;19918;-59
2023/05/10 09:42:07;;;;;;;1.70;1.60;;;18.00;42.20;;;;;;4898016;29;20039;-60
2023/05/10 09:44:34;;;;;;;2.65;2.00;;;18.00;42.40;;;;;;4892034;29;20055;-60
2023/05/10 09:47:04;;;;;;;3.08;1.95;;;18.00;42.00;;;;;;4902513;29;20382;-58
2023/05/10 09:49:29;;;;;;;2.15;1.95;;;18.00;41.70;;;;;;4887181;29;20032;-58
2023/05/10 09:52:04;;;;;;;2.70;2.00;;;18.00;41.60;;;;;;4903401;29;20035;-59
2023/05/10 09:54:30;;;;;;;2.40;2.00;;;18.10;41.40;;;;;;4895770;29;20043;-55
2023/05/10 09:56:56;;;;;;;1.70;1.60;;;18.10;41.50;;;;;;4905447;29;20083;-50
2023/05/10 09:59:24;;;;;;;2.20;1.95;;;18.10;41.70;;;;;;4898388;29;20042;-56
2023/05/10 10:01:51;;;;;;;2.20;2.00;;;18.10;41.50;;;;;;4899732;29;20087;-56
2023/05/10 10:04:17;;;;;;;2.85;2.35;;;18.10;41.30;;;;;;4902129;29;20161;-55
2023/05/10 10:06:42;;;;;;;2.10;1.90;;;18.00;41.30;;;;;;4905128;29;20036;-52
2023/05/10 10:09:09;;;;;;;2.15;1.60;;;18.00;41.20;;;;;;4905856;29;20043;-55
2023/05/10 10:11:36;;;;;;;1.75;1.65;;;18.00;41.00;;;;;;4909854;29;20127;-56
2023/05/10 10:14:02;;;;;;;1.80;1.70;;;17.90;41.00;;;;;;4917311;29;20039;-52
2023/05/10 10:16:29;;;;;;;3.22;2.10;;;17.90;40.80;;;;;;4914550;29;20047;-53
2023/05/10 10:18:56;;;;;;;2.08;1.88;;;17.70;40.60;;;;;;4907353;29;20090;-58
2023/05/10 10:21:23;;;;;;;2.30;2.10;;;17.60;40.60;;;;;;4903989;29;20391;-52
2023/05/10 10:23:48;;;;;;;2.25;2.05;;;17.60;40.40;;;;;;4906731;29;20059;-56
2023/05/10 10:26:17;;;;;;;2.10;1.90;;;17.50;40.20;;;;;;4908624;29;20036;-58
2023/05/10 10:29:08;;;;;;;1.70;1.60;;;17.50;40.10;;;;;;4911492;29;20044;-52
2023/05/10 10:31:45;;;;;;;2.63;1.98;;;17.40;40.00;;;;;;4892331;29;20036;-57
2023/05/10 10:34:16;;;;;;;1.65;1.55;;;17.40;40.00;;;;;;4906068;29;20843;-56
2023/05/10 10:36:49;;;;;;;2.25;1.50;;;17.50;39.90;;;;;;4909274;29;20099;-59
2023/05/10 10:39:15;;;;;;;2.10;1.90;;;17.60;39.90;;;;;;4917117;29;20115;-56
2023/05/10 10:41:55;;;;;;;2.08;1.90;;;17.60;39.80;;;;;;4910858;29;20040;-60
2023/05/10 10:44:26;;;;;;;1.80;1.70;;;17.70;39.20;;;;;;4909075;29;20059;-52
2023/05/10 10:47:05;;;;;;;1.80;1.70;;;17.70;39.20;;;;;;4919992;29;20095;-51
2023/05/10 10:49:33;;;;;;;1.60;1.50;;;17.70;39.00;;;;;;4918031;29;20122;-55
2023/05/10 10:52:29;;;;;;;2.42;1.65;;;17.70;39.00;;;;;;4896659;29;20043;-55
2023/05/10 10:55:16;;;;;;;1.88;1.70;;;17.80;39.10;;;;;;4896819;29;20122;-60
2023/05/10 10:58:00;;;;;;;1.83;1.55;;;17.70;39.10;;;;;;4897464;29;20043;-56
2023/05/10 11:00:30;;;;;;;1.80;1.70;;;17.80;38.90;;;;;;4901449;29;20114;-55
2023/05/10 11:03:02;;;;;;;1.92;1.77;;;17.80;39.00;;;;;;4903134;29;20161;-57
2023/05/10 11:05:54;;;;;;;1.88;1.67;;;17.80;39.00;;;;;;4896777;29;20516;-60
2023/05/10 11:08:29;;;;;;;2.13;1.73;;;17.80;38.80;;;;;;4909305;29;20040;-59
2023/05/10 11:11:03;;;;;;;2.00;1.80;;;17.80;39.00;;;;;;4909511;29;20046;-56
2023/05/10 11:13:34;;;;;;;1.98;1.83;;;17.80;39.10;;;;;;4915499;29;20407;-55
2023/05/10 11:16:10;;;;;;;1.70;1.60;;;17.80;39.10;;;;;;4911205;29;20027;-55
2023/05/10 11:18:37;;;;;;;1.92;1.58;;;17.80;39.40;;;;;;4918295;29;20039;-52
2023/05/10 11:21:04;;;;;;;2.20;2.00;;;17.80;39.50;;;;;;4908611;29;20035;-55
2023/05/10 11:23:58;;;;;;;3.92;2.13;;;17.80;39.80;;;;;;4917384;29;20094;-58
2023/05/10 11:26:35;;;;;;;1.95;1.65;;;17.80;39.50;;;;;;4916049;29;20028;-54
2023/05/10 11:29:02;;;;;;;2.45;1.90;;;17.80;39.50;;;;;;4912721;29;20539;-53
2023/05/10 11:31:28;;;;;;;1.83;1.73;;;17.80;39.40;;;;;;4906682;28;20159;-59
2023/05/10 11:33:56;;;;;;;1.88;1.77;;;17.80;39.90;;;;;;4910984;29;20510;-56
2023/05/10 11:36:28;;;;;;;1.77;1.52;;;17.80;39.00;;;;;;4904835;29;20036;-58
2023/05/10 11:38:56;;;;;;;2.55;1.83;;;17.70;39.20;;;;;;4905380;29;20043;-55
2023/05/10 11:41:22;;;;;;;2.63;1.80;;;17.70;39.30;;;;;;4913777;29;20062;-57
2023/05/10 11:43:50;;;;;;;2.00;1.88;;;17.60;39.60;;;;;;4911469;29;20059;-56
2023/05/10 11:46:20;;;;;;;1.98;1.58;;;17.60;39.60;;;;;;4911268;29;20035;-55
2023/05/10 11:48:47;;;;;;;2.10;1.90;;;17.60;39.50;;;;;;4906086;29;20051;-50
2023/05/10 11:51:12;;;;;;;1.67;1.58;;;17.60;39.60;;;;;;4897144;29;20031;-53
2023/05/10 11:53:38;;;;;;;3.20;1.80;;;17.50;39.40;;;;;;4908152;29;20027;-53
2023/05/10 11:56:11;;;;;;;1.80;1.67;;;17.50;39.40;;;;;;4903169;29;20051;-54
2023/05/10 11:58:38;;;;;;;2.47;1.80;;;17.50;39.90;;;;;;4910929;29;20024;-51
2023/05/10 12:01:05;;;;;;;3.08;2.10;;;17.50;40.10;;;;;;4902097;29;20059;-58
2023/05/10 12:03:31;;;;;;;3.58;1.80;;;17.40;40.30;;;;;;4896107;29;20071;-55
2023/05/10 12:05:58;;;;;;;3.00;1.85;;;17.50;40.20;;;;;;4902957;29;20048;-59
2023/05/10 12:08:26;;;;;;;2.83;2.33;;;17.50;39.90;;;;;;4902267;29;20179;-59
2023/05/10 12:10:53;;;;;;;2.00;1.80;;;17.50;40.00;;;;;;4890976;29;20119;-58
2023/05/10 12:13:20;;;;;;;2.03;1.90;;;17.50;40.00;;;;;;4888036;29;20036;-58
2023/05/10 12:15:46;;;;;;;4.25;2.10;;;17.40;39.70;;;;;;4899133;29;20036;-53
2023/05/10 12:18:13;;;;;;;1.73;1.63;;;17.40;39.60;;;;;;4907396;29;20028;-49
2023/05/10 12:20:39;;;;;;;1.98;1.88;;;17.30;39.80;;;;;;4884819;29;20032;-54
2023/05/10 12:23:05;;;;;;;2.47;1.92;;;17.30;40.00;;;;;;4903410;29;20035;-54
2023/05/10 12:25:36;;;;;;;2.55;2.28;;;17.30;40.00;;;;;;4893321;29;20613;-61
2023/05/10 12:28:08;;;;;;;1.80;1.70;;;17.30;39.90;;;;;;4897700;29;20036;-59
2023/05/10 12:30:35;;;;;;;2.35;2.00;;;17.30;40.00;;;;;;4890572;29;20074;-61
2023/05/10 12:33:12;;;;;;;2.05;1.65;;;17.30;40.10;;;;;;4908035;29;20130;-51
2023/05/10 12:35:45;;;;;;;2.15;1.95;;;17.30;40.00;;;;;;4895978;29;20039;-53
2023/05/10 12:38:29;;;;;;;2.55;2.25;;;17.30;39.90;;;;;;4902897;29;20090;-52
2023/05/10 12:40:56;;;;;;;2.90;2.20;;;17.40;40.00;;;;;;4900073;29;20050;-55
2023/05/10 12:43:22;;;;;;;2.25;2.00;;;17.30;39.80;;;;;;4899968;29;20493;-60
2023/05/10 12:45:48;;;;;;;2.20;2.00;;;17.40;40.10;;;;;;4895531;29;20046;-57
2023/05/10 12:48:15;;;;;;;2.45;1.95;;;17.40;40.10;;;;;;4897075;29;21693;-57
2023/05/10 12:50:41;;;;;;;2.00;1.85;;;17.40;39.90;;;;;;4911416;29;20045;-53
2023/05/10 12:53:06;;;;;;;1.95;1.75;;;17.40;39.70;;;;;;4906737;29;20031;-60